sensor_id;sensor_type;location;lat;lon;timestamp;pressure;altitude;pressure_sealevel;temperature;humidity
14134;BME280;7147;59.364;18.018;2022-08-05T21:07:37;100432.91;;;17.11;100.00
14134;BME280;7147;59.364;18.018;2022-08-05T21:10:05;100438.31;;;17.17;100.00
14134;BME280;7147;59.364;18.018;2022-08-05T21:12:34;100446.78;;;17.27;100.00
14134;BME280;7147;59.364;18.018;2022-08-05T21:15:06;100444.69;;;17.35;100.00
14134;BME280;7147;59.364;18.018;2022-08-05T21:17:36;100443.66;;;17.41;100.00
14134;BME280;7147;59.364;18.018;2022-08-05T21:20:03;100437.13;;;17.52;100.00
14134;BME280;7147;59.364;18.018;2022-08-05T21:22:30;100438.94;;;17.58;100.00
14134;BME280;7147;59.364;18.018;2022-08-05T21:24:58;100435.78;;;17.71;100.00
14134;BME280;7147;59.364;18.018;2022-08-05T21:27:25;100436.94;;;17.75;100.00
14134;BME280;7147;59.364;18.018;2022-08-05T21:29:52;100435.00;;;17.75;100.00
14134;BME280;7147;59.364;18.018;2022-08-05T21:32:18;100428.38;;;17.81;100.00
14134;BME280;7147;59.364;18.018;2022-08-05T21:34:45;100427.03;;;17.84;100.00
14134;BME280;7147;59.364;18.018;2022-08-05T21:37:12;100428.78;;;17.90;100.00
14134;BME280;7147;59.364;18.018;2022-08-05T21:39:38;100426.66;;;17.97;100.00
14134;BME280;7147;59.364;18.018;2022-08-05T21:42:06;100420.03;;;18.03;100.00
14134;BME280;7147;59.364;18.018;2022-08-05T21:44:33;100428.38;;;18.03;100.00
14134;BME280;7147;59.364;18.018;2022-08-05T21:47:00;100456.81;;;18.05;100.00
14134;BME280;7147;59.364;18.018;2022-08-05T21:49:27;100452.09;;;18.06;100.00
14134;BME280;7147;59.364;18.018;2022-08-05T21:51:54;100433.44;;;18.06;100.00
14134;BME280;7147;59.364;18.018;2022-08-05T21:54:21;100433.97;;;18.03;100.00
14134;BME280;7147;59.364;18.018;2022-08-05T21:56:47;100441.19;;;18.04;100.00
14134;BME280;7147;59.364;18.018;2022-08-05T21:59:15;100438.88;;;17.96;100.00
14134;BME280;7147;59.364;18.018;2022-08-05T22:01:42;100444.00;;;17.82;100.00
14134;BME280;7147;59.364;18.018;2022-08-05T22:04:09;100438.50;;;17.88;100.00
14134;BME280;7147;59.364;18.018;2022-08-05T22:06:35;100437.19;;;17.95;100.00
14134;BME280;7147;59.364;18.018;2022-08-05T22:09:04;100430.94;;;17.83;100.00
14134;BME280;7147;59.364;18.018;2022-08-05T22:11:31;100444.06;;;17.88;100.00
14134;BME280;7147;59.364;18.018;2022-08-05T22:13:58;100429.56;;;17.86;100.00
14134;BME280;7147;59.364;18.018;2022-08-05T22:16:26;100429.63;;;17.91;100.00
14134;BME280;7147;59.364;18.018;2022-08-05T22:18:52;100425.47;;;17.93;100.00
14134;BME280;7147;59.364;18.018;2022-08-05T22:21:19;100416.53;;;17.91;100.00
14134;BME280;7147;59.364;18.018;2022-08-05T22:23:46;100412.59;;;17.87;100.00
14134;BME280;7147;59.364;18.018;2022-08-05T22:26:30;100404.94;;;17.77;100.00
14134;BME280;7147;59.364;18.018;2022-08-05T22:29:14;100416.69;;;17.79;100.00
14134;BME280;7147;59.364;18.018;2022-08-05T22:31:43;100408.00;;;17.76;100.00
14134;BME280;7147;59.364;18.018;2022-08-05T22:34:09;100406.41;;;17.80;100.00
14134;BME280;7147;59.364;18.018;2022-08-05T22:36:36;100403.38;;;17.87;100.00
14134;BME280;7147;59.364;18.018;2022-08-05T22:39:03;100413.16;;;17.89;100.00
14134;BME280;7147;59.364;18.018;2022-08-05T22:41:29;100403.38;;;17.87;100.00
14134;BME280;7147;59.364;18.018;2022-08-05T22:43:56;100410.66;;;17.88;100.00
14134;BME280;7147;59.364;18.018;2022-08-05T22:46:23;100409.28;;;17.90;100.00
14134;BME280;7147;59.364;18.018;2022-08-05T22:48:51;100405.66;;;17.90;100.00
14134;BME280;7147;59.364;18.018;2022-08-05T22:51:18;100406.25;;;17.92;100.00
14134;BME280;7147;59.364;18.018;2022-08-05T22:53:44;100413.72;;;17.86;100.00
14134;BME280;7147;59.364;18.018;2022-08-05T22:56:11;100413.75;;;17.69;100.00
14134;BME280;7147;59.364;18.018;2022-08-05T22:58:37;100420.03;;;17.60;100.00
14134;BME280;7147;59.364;18.018;2022-08-05T23:01:04;100415.16;;;17.50;100.00
14134;BME280;7147;59.364;18.018;2022-08-05T23:03:31;100409.25;;;17.47;100.00
14134;BME280;7147;59.364;18.018;2022-08-05T23:05:59;100394.09;;;17.38;100.00
14134;BME280;7147;59.364;18.018;2022-08-05T23:08:26;100397.06;;;17.31;100.00
14134;BME280;7147;59.364;18.018;2022-08-05T23:10:53;100423.72;;;17.10;100.00
14134;BME280;7147;59.364;18.018;2022-08-05T23:13:20;100417.91;;;16.95;100.00
14134;BME280;7147;59.364;18.018;2022-08-05T23:15:46;100421.56;;;16.79;100.00
14134;BME280;7147;59.364;18.018;2022-08-05T23:18:13;100426.47;;;16.44;100.00
14134;BME280;7147;59.364;18.018;2022-08-05T23:20:40;100429.75;;;16.41;100.00
14134;BME280;7147;59.364;18.018;2022-08-05T23:23:10;100432.81;;;16.28;100.00
14134;BME280;7147;59.364;18.018;2022-08-05T23:25:37;100430.78;;;16.23;100.00
14134;BME280;7147;59.364;18.018;2022-08-05T23:28:04;100432.13;;;16.21;100.00
14134;BME280;7147;59.364;18.018;2022-08-05T23:30:31;100423.00;;;16.08;100.00
14134;BME280;7147;59.364;18.018;2022-08-05T23:32:59;100420.81;;;16.10;100.00
14134;BME280;7147;59.364;18.018;2022-08-05T23:35:26;100417.47;;;16.08;100.00
14134;BME280;7147;59.364;18.018;2022-08-05T23:37:53;100425.31;;;16.11;100.00
14134;BME280;7147;59.364;18.018;2022-08-05T23:40:21;100420.81;;;16.10;100.00
14134;BME280;7147;59.364;18.018;2022-08-05T23:42:48;100423.88;;;15.97;100.00
14134;BME280;7147;59.364;18.018;2022-08-05T23:45:15;100424.50;;;15.99;100.00
14134;BME280;7147;59.364;18.018;2022-08-05T23:47:41;100424.13;;;15.96;100.00
14134;BME280;7147;59.364;18.018;2022-08-05T23:50:08;100426.25;;;15.77;100.00
14134;BME280;7147;59.364;18.018;2022-08-05T23:52:35;100424.44;;;15.71;100.00
14134;BME280;7147;59.364;18.018;2022-08-05T23:55:05;100396.16;;;15.57;100.00
14134;BME280;7147;59.364;18.018;2022-08-05T23:57:33;100417.59;;;15.62;100.00
